sensor_id;sensor_type;location;lat;lon;timestamp;temperature;humidity
36372;DHT22;22398;51.346;12.372;2023-07-13T00:03:37;21.70;56.20
36372;DHT22;22398;51.346;12.372;2023-07-13T00:08:44;21.60;56.20
36372;DHT22;22398;51.346;12.372;2023-07-13T00:13:47;21.50;56.50
36372;DHT22;22398;51.346;12.372;2023-07-13T00:18:51;21.50;57.00
36372;DHT22;22398;51.346;12.372;2023-07-13T00:23:55;21.60;57.10
36372;DHT22;22398;51.346;12.372;2023-07-13T00:28:59;21.50;57.00
36372;DHT22;22398;51.346;12.372;2023-07-13T00:34:05;21.50;57.00
36372;DHT22;22398;51.346;12.372;2023-07-13T00:39:08;21.50;57.00
36372;DHT22;22398;51.346;12.372;2023-07-13T00:44:12;21.40;56.80
36372;DHT22;22398;51.346;12.372;2023-07-13T00:49:19;21.30;57.10
36372;DHT22;22398;51.346;12.372;2023-07-13T00:54:23;21.30;57.70
36372;DHT22;22398;51.346;12.372;2023-07-13T00:59:27;21.20;57.90
36372;DHT22;22398;51.346;12.372;2023-07-13T01:04:32;21.10;57.90
36372;DHT22;22398;51.346;12.372;2023-07-13T01:09:35;21.00;58.40
36372;DHT22;22398;51.346;12.372;2023-07-13T01:14:38;20.80;59.20
36372;DHT22;22398;51.346;12.372;2023-07-13T01:19:43;20.60;59.70
36372;DHT22;22398;51.346;12.372;2023-07-13T01:24:48;20.50;60.20
36372;DHT22;22398;51.346;12.372;2023-07-13T01:29:51;20.50;61.00
36372;DHT22;22398;51.346;12.372;2023-07-13T01:34:55;20.40;60.60
36372;DHT22;22398;51.346;12.372;2023-07-13T01:39:59;20.30;60.50
36372;DHT22;22398;51.346;12.372;2023-07-13T01:45:05;20.20;60.60
36372;DHT22;22398;51.346;12.372;2023-07-13T01:50:09;20.20;60.60
36372;DHT22;22398;51.346;12.372;2023-07-13T01:55:14;20.10;60.80
36372;DHT22;22398;51.346;12.372;2023-07-13T02:00:18;20.00;61.00
36372;DHT22;22398;51.346;12.372;2023-07-13T02:05:22;20.00;61.20
36372;DHT22;22398;51.346;12.372;2023-07-13T02:10:27;20.00;61.30
36372;DHT22;22398;51.346;12.372;2023-07-13T02:15:30;19.90;61.60
36372;DHT22;22398;51.346;12.372;2023-07-13T02:20:34;19.90;61.80
36372;DHT22;22398;51.346;12.372;2023-07-13T02:25:39;19.80;62.10
36372;DHT22;22398;51.346;12.372;2023-07-13T02:30:43;19.60;62.80
36372;DHT22;22398;51.346;12.372;2023-07-13T02:35:46;19.40;63.30
36372;DHT22;22398;51.346;12.372;2023-07-13T02:40:51;19.30;63.70
36372;DHT22;22398;51.346;12.372;2023-07-13T02:45:55;19.10;64.20
36372;DHT22;22398;51.346;12.372;2023-07-13T02:50:58;18.90;64.80
36372;DHT22;22398;51.346;12.372;2023-07-13T02:56:04;18.50;65.30
36372;DHT22;22398;51.346;12.372;2023-07-13T03:01:08;18.50;65.90
36372;DHT22;22398;51.346;12.372;2023-07-13T03:06:12;18.30;66.40
36372;DHT22;22398;51.346;12.372;2023-07-13T03:11:23;18.20;66.80
36372;DHT22;22398;51.346;12.372;2023-07-13T03:16:32;18.20;67.00
36372;DHT22;22398;51.346;12.372;2023-07-13T03:21:36;18.20;67.70
36372;DHT22;22398;51.346;12.372;2023-07-13T03:26:41;18.10;68.10
36372;DHT22;22398;51.346;12.372;2023-07-13T03:31:44;17.90;68.70
36372;DHT22;22398;51.346;12.372;2023-07-13T03:36:48;17.80;69.30
36372;DHT22;22398;51.346;12.372;2023-07-13T03:41:52;17.80;69.70
36372;DHT22;22398;51.346;12.372;2023-07-13T03:46:56;17.80;70.10
36372;DHT22;22398;51.346;12.372;2023-07-13T03:52:00;17.70;70.50
36372;DHT22;22398;51.346;12.372;2023-07-13T03:57:05;17.70;71.00
36372;DHT22;22398;51.346;12.372;2023-07-13T04:02:10;17.80;71.40
36372;DHT22;22398;51.346;12.372;2023-07-13T04:07:13;17.70;71.60
36372;DHT22;22398;51.346;12.372;2023-07-13T04:12:18;17.80;72.00
36372;DHT22;22398;51.346;12.372;2023-07-13T04:17:22;18.00;72.30
36372;DHT22;22398;51.346;12.372;2023-07-13T04:22:25;17.90;72.40
36372;DHT22;22398;51.346;12.372;2023-07-13T04:27:30;17.90;72.70
36372;DHT22;22398;51.346;12.372;2023-07-13T04:32:34;18.10;72.90
36372;DHT22;22398;51.346;12.372;2023-07-13T04:37:37;18.50;72.80
36372;DHT22;22398;51.346;12.372;2023-07-13T04:42:42;18.50;72.40
36372;DHT22;22398;51.346;12.372;2023-07-13T04:47:46;18.40;72.50
36372;DHT22;22398;51.346;12.372;2023-07-13T04:52:49;18.50;72.70
36372;DHT22;22398;51.346;12.372;2023-07-13T04:57:54;18.40;72.90
36372;DHT22;22398;51.346;12.372;2023-07-13T05:02:58;19.10;74.50
36372;DHT22;22398;51.346;12.372;2023-07-13T05:08:02;21.90;70.80
36372;DHT22;22398;51.346;12.372;2023-07-13T05:13:07;24.00;65.60
36372;DHT22;22398;51.346;12.372;2023-07-13T05:18:10;25.60;61.90
36372;DHT22;22398;51.346;12.372;2023-07-13T05:23:13;26.60;59.10
36372;DHT22;22398;51.346;12.372;2023-07-13T05:28:18;25.70;57.20
36372;DHT22;22398;51.346;12.372;2023-07-13T05:33:21;23.90;58.60
36372;DHT22;22398;51.346;12.372;2023-07-13T05:38:25;22.70;60.30
36372;DHT22;22398;51.346;12.372;2023-07-13T05:43:29;21.90;61.90
36372;DHT22;22398;51.346;12.372;2023-07-13T05:48:33;21.60;62.80
36372;DHT22;22398;51.346;12.372;2023-07-13T05:53:36;21.40;63.30
36372;DHT22;22398;51.346;12.372;2023-07-13T05:58:41;21.30;63.60
36372;DHT22;22398;51.346;12.372;2023-07-13T06:03:44;21.50;64.10
36372;DHT22;22398;51.346;12.372;2023-07-13T06:08:47;21.80;64.30
36372;DHT22;22398;51.346;12.372;2023-07-13T06:13:52;22.30;63.90
36372;DHT22;22398;51.346;12.372;2023-07-13T06:18:55;22.10;63.70
36372;DHT22;22398;51.346;12.372;2023-07-13T06:23:58;22.00;63.80
36372;DHT22;22398;51.346;12.372;2023-07-13T06:29:03;22.00;64.00
36372;DHT22;22398;51.346;12.372;2023-07-13T06:34:07;22.10;64.10
36372;DHT22;22398;51.346;12.372;2023-07-13T06:39:10;22.10;64.30
36372;DHT22;22398;51.346;12.372;2023-07-13T06:44:15;22.20;64.20
36372;DHT22;22398;51.346;12.372;2023-07-13T06:49:18;22.20;63.80
36372;DHT22;22398;51.346;12.372;2023-07-13T06:54:22;22.30;63.50
36372;DHT22;22398;51.346;12.372;2023-07-13T06:59:27;22.20;62.40
36372;DHT22;22398;51.346;12.372;2023-07-13T07:04:30;22.40;61.40
36372;DHT22;22398;51.346;12.372;2023-07-13T07:09:33;22.50;61.30
36372;DHT22;22398;51.346;12.372;2023-07-13T07:14:38;22.90;60.70
36372;DHT22;22398;51.346;12.372;2023-07-13T07:19:43;23.10;59.70
36372;DHT22;22398;51.346;12.372;2023-07-13T07:24:47;22.90;59.20
36372;DHT22;22398;51.346;12.372;2023-07-13T07:29:51;22.80;59.20
36372;DHT22;22398;51.346;12.372;2023-07-13T07:35:15;22.60;59.70
36372;DHT22;22398;51.346;12.372;2023-07-13T07:40:18;22.80;59.80
36372;DHT22;22398;51.346;12.372;2023-07-13T07:45:26;23.20;58.90
36372;DHT22;22398;51.346;12.372;2023-07-13T07:50:30;23.70;58.10
36372;DHT22;22398;51.346;12.372;2023-07-13T07:55:33;23.80;57.20
36372;DHT22;22398;51.346;12.372;2023-07-13T08:00:42;23.50;57.00
36372;DHT22;22398;51.346;12.372;2023-07-13T08:05:48;23.40;56.80
36372;DHT22;22398;51.346;12.372;2023-07-13T08:10:55;23.80;56.40
36372;DHT22;22398;51.346;12.372;2023-07-13T08:16:19;24.20;55.70
36372;DHT22;22398;51.346;12.372;2023-07-13T08:21:23;24.30;55.00
36372;DHT22;22398;51.346;12.372;2023-07-13T08:26:26;24.60;54.70
36372;DHT22;22398;51.346;12.372;2023-07-13T08:31:31;24.50;54.00
36372;DHT22;22398;51.346;12.372;2023-07-13T08:36:34;24.80;54.10
36372;DHT22;22398;51.346;12.372;2023-07-13T08:41:37;25.20;53.30
36372;DHT22;22398;51.346;12.372;2023-07-13T08:46:41;24.90;53.00
36372;DHT22;22398;51.346;12.372;2023-07-13T08:51:45;24.40;52.90
36372;DHT22;22398;51.346;12.372;2023-07-13T08:56:50;24.30;53.00
36372;DHT22;22398;51.346;12.372;2023-07-13T09:02:15;24.30;53.10
36372;DHT22;22398;51.346;12.372;2023-07-13T09:07:23;25.20;51.80
36372;DHT22;22398;51.346;12.372;2023-07-13T09:12:31;25.70;52.00
36372;DHT22;22398;51.346;12.372;2023-07-13T09:17:40;26.80;49.60
36372;DHT22;22398;51.346;12.372;2023-07-13T09:22:44;26.80;49.60
36372;DHT22;22398;51.346;12.372;2023-07-13T09:27:48;26.20;48.90
36372;DHT22;22398;51.346;12.372;2023-07-13T09:32:58;25.90;49.60
36372;DHT22;22398;51.346;12.372;2023-07-13T09:38:10;25.90;49.60
36372;DHT22;22398;51.346;12.372;2023-07-13T09:43:14;26.60;49.80
36372;DHT22;22398;51.346;12.372;2023-07-13T09:48:19;27.20;47.90
36372;DHT22;22398;51.346;12.372;2023-07-13T09:53:22;27.20;47.80
36372;DHT22;22398;51.346;12.372;2023-07-13T09:58:26;28.00;47.20
36372;DHT22;22398;51.346;12.372;2023-07-13T10:03:35;28.50;47.20
36372;DHT22;22398;51.346;12.372;2023-07-13T10:08:40;28.30;45.60
36372;DHT22;22398;51.346;12.372;2023-07-13T10:13:44;27.60;46.00
36372;DHT22;22398;51.346;12.372;2023-07-13T10:18:50;27.70;45.80
36372;DHT22;22398;51.346;12.372;2023-07-13T10:23:57;27.50;46.20
36372;DHT22;22398;51.346;12.372;2023-07-13T10:29:06;26.80;46.70
36372;DHT22;22398;51.346;12.372;2023-07-13T10:34:13;26.30;47.90
36372;DHT22;22398;51.346;12.372;2023-07-13T10:39:17;26.00;48.30
36372;DHT22;22398;51.346;12.372;2023-07-13T10:44:24;25.80;49.50
36372;DHT22;22398;51.346;12.372;2023-07-13T10:49:32;25.40;49.20
36372;DHT22;22398;51.346;12.372;2023-07-13T10:54:37;25.40;50.00
36372;DHT22;22398;51.346;12.372;2023-07-13T10:59:40;25.80;49.10
36372;DHT22;22398;51.346;12.372;2023-07-13T11:04:45;26.30;48.80
36372;DHT22;22398;51.346;12.372;2023-07-13T11:09:50;26.60;47.50
36372;DHT22;22398;51.346;12.372;2023-07-13T11:15:02;26.80;45.50
36372;DHT22;22398;51.346;12.372;2023-07-13T11:20:19;26.80;45.90
36372;DHT22;22398;51.346;12.372;2023-07-13T11:25:28;27.10;44.80
36372;DHT22;22398;51.346;12.372;2023-07-13T11:30:32;27.00;45.00
36372;DHT22;22398;51.346;12.372;2023-07-13T11:35:40;26.60;44.60
36372;DHT22;22398;51.346;12.372;2023-07-13T11:40:45;26.60;45.00
36372;DHT22;22398;51.346;12.372;2023-07-13T11:45:57;26.80;44.20
36372;DHT22;22398;51.346;12.372;2023-07-13T11:51:02;26.80;44.50
36372;DHT22;22398;51.346;12.372;2023-07-13T11:56:06;26.80;43.20
36372;DHT22;22398;51.346;12.372;2023-07-13T12:06:26;27.10;42.50
36372;DHT22;22398;51.346;12.372;2023-07-13T12:11:30;27.10;42.80
36372;DHT22;22398;51.346;12.372;2023-07-13T12:16:33;26.80;42.30
36372;DHT22;22398;51.346;12.372;2023-07-13T12:21:38;26.80;43.10
36372;DHT22;22398;51.346;12.372;2023-07-13T12:26:41;27.30;42.20
36372;DHT22;22398;51.346;12.372;2023-07-13T12:31:45;27.20;42.10
36372;DHT22;22398;51.346;12.372;2023-07-13T12:36:53;27.30;41.20
36372;DHT22;22398;51.346;12.372;2023-07-13T12:47:16;27.40;40.40
36372;DHT22;22398;51.346;12.372;2023-07-13T12:52:22;27.50;40.90
36372;DHT22;22398;51.346;12.372;2023-07-13T12:57:26;27.30;41.00
36372;DHT22;22398;51.346;12.372;2023-07-13T13:02:30;27.50;41.70
36372;DHT22;22398;51.346;12.372;2023-07-13T13:07:35;27.40;41.40
36372;DHT22;22398;51.346;12.372;2023-07-13T13:12:38;27.10;42.00
36372;DHT22;22398;51.346;12.372;2023-07-13T13:17:44;26.70;42.20
36372;DHT22;22398;51.346;12.372;2023-07-13T13:22:49;26.80;42.80
36372;DHT22;22398;51.346;12.372;2023-07-13T13:27:52;26.50;42.10
36372;DHT22;22398;51.346;12.372;2023-07-13T13:32:55;26.50;42.60
36372;DHT22;22398;51.346;12.372;2023-07-13T13:38:00;26.30;42.10
36372;DHT22;22398;51.346;12.372;2023-07-13T13:43:04;26.20;42.70
36372;DHT22;22398;51.346;12.372;2023-07-13T13:48:07;26.20;43.00
36372;DHT22;22398;51.346;12.372;2023-07-13T13:53:17;26.40;43.50
36372;DHT22;22398;51.346;12.372;2023-07-13T13:58:21;26.80;43.30
36372;DHT22;22398;51.346;12.372;2023-07-13T14:03:24;26.80;43.60
36372;DHT22;22398;51.346;12.372;2023-07-13T14:08:29;27.00;42.60
36372;DHT22;22398;51.346;12.372;2023-07-13T14:13:35;27.10;43.20
36372;DHT22;22398;51.346;12.372;2023-07-13T14:18:39;27.10;42.70
36372;DHT22;22398;51.346;12.372;2023-07-13T14:23:44;26.80;43.10
36372;DHT22;22398;51.346;12.372;2023-07-13T14:28:50;27.00;42.60
36372;DHT22;22398;51.346;12.372;2023-07-13T14:33:55;26.90;43.00
36372;DHT22;22398;51.346;12.372;2023-07-13T14:39:00;26.80;42.50
36372;DHT22;22398;51.346;12.372;2023-07-13T14:44:07;26.50;42.80
36372;DHT22;22398;51.346;12.372;2023-07-13T14:49:13;26.50;42.60
36372;DHT22;22398;51.346;12.372;2023-07-13T14:54:20;26.40;43.20
36372;DHT22;22398;51.346;12.372;2023-07-13T14:59:23;26.30;42.80
36372;DHT22;22398;51.346;12.372;2023-07-13T15:04:26;26.50;43.30
36372;DHT22;22398;51.346;12.372;2023-07-13T15:09:31;26.70;43.00
36372;DHT22;22398;51.346;12.372;2023-07-13T15:14:35;26.50;42.60
36372;DHT22;22398;51.346;12.372;2023-07-13T15:19:38;26.40;42.80
36372;DHT22;22398;51.346;12.372;2023-07-13T15:24:43;26.50;43.00
36372;DHT22;22398;51.346;12.372;2023-07-13T15:29:47;26.80;43.00
36372;DHT22;22398;51.346;12.372;2023-07-13T15:34:50;26.80;42.60
36372;DHT22;22398;51.346;12.372;2023-07-13T15:39:55;26.30;42.40
36372;DHT22;22398;51.346;12.372;2023-07-13T15:44:58;26.40;42.80
36372;DHT22;22398;51.346;12.372;2023-07-13T15:50:04;26.20;42.80
36372;DHT22;22398;51.346;12.372;2023-07-13T15:55:11;26.30;43.30
36372;DHT22;22398;51.346;12.372;2023-07-13T16:00:18;26.60;43.20
36372;DHT22;22398;51.346;12.372;2023-07-13T16:05:23;26.80;43.10
36372;DHT22;22398;51.346;12.372;2023-07-13T16:10:30;26.80;42.80
36372;DHT22;22398;51.346;12.372;2023-07-13T16:15:34;26.80;42.60
36372;DHT22;22398;51.346;12.372;2023-07-13T16:20:37;26.80;42.60
36372;DHT22;22398;51.346;12.372;2023-07-13T16:25:44;26.90;42.70
36372;DHT22;22398;51.346;12.372;2023-07-13T16:30:48;26.90;43.00
36372;DHT22;22398;51.346;12.372;2023-07-13T16:35:52;27.00;43.10
36372;DHT22;22398;51.346;12.372;2023-07-13T16:40:57;26.60;43.50
36372;DHT22;22398;51.346;12.372;2023-07-13T16:46:00;26.70;43.80
36372;DHT22;22398;51.346;12.372;2023-07-13T16:51:05;26.60;43.80
36372;DHT22;22398;51.346;12.372;2023-07-13T16:56:11;26.40;44.00
36372;DHT22;22398;51.346;12.372;2023-07-13T17:01:14;26.10;44.40
36372;DHT22;22398;51.346;12.372;2023-07-13T17:06:20;25.90;45.20
36372;DHT22;22398;51.346;12.372;2023-07-13T17:11:26;25.70;45.10
36372;DHT22;22398;51.346;12.372;2023-07-13T17:16:31;25.50;45.30
36372;DHT22;22398;51.346;12.372;2023-07-13T17:21:36;25.40;45.60
36372;DHT22;22398;51.346;12.372;2023-07-13T17:26:41;25.20;45.90
36372;DHT22;22398;51.346;12.372;2023-07-13T17:31:46;25.10;46.10
36372;DHT22;22398;51.346;12.372;2023-07-13T17:36:49;25.00;46.40
36372;DHT22;22398;51.346;12.372;2023-07-13T17:41:54;25.20;46.50
36372;DHT22;22398;51.346;12.372;2023-07-13T17:46:57;25.60;46.20
36372;DHT22;22398;51.346;12.372;2023-07-13T17:52:02;25.20;46.30
36372;DHT22;22398;51.346;12.372;2023-07-13T17:57:08;25.00;46.90
36372;DHT22;22398;51.346;12.372;2023-07-13T18:02:17;24.80;47.30
36372;DHT22;22398;51.346;12.372;2023-07-13T18:07:22;24.70;47.60
36372;DHT22;22398;51.346;12.372;2023-07-13T18:12:31;24.60;47.90
36372;DHT22;22398;51.346;12.372;2023-07-13T18:17:37;24.40;48.20
36372;DHT22;22398;51.346;12.372;2023-07-13T18:22:40;24.30;48.40
36372;DHT22;22398;51.346;12.372;2023-07-13T18:27:45;24.10;48.70
36372;DHT22;22398;51.346;12.372;2023-07-13T18:32:49;23.90;49.00
36372;DHT22;22398;51.346;12.372;2023-07-13T18:37:55;23.70;49.50
36372;DHT22;22398;51.346;12.372;2023-07-13T18:43:02;23.60;49.80
36372;DHT22;22398;51.346;12.372;2023-07-13T18:48:07;23.50;50.20
36372;DHT22;22398;51.346;12.372;2023-07-13T18:53:13;23.30;50.30
36372;DHT22;22398;51.346;12.372;2023-07-13T18:58:18;23.00;51.40
36372;DHT22;22398;51.346;12.372;2023-07-13T19:03:23;22.30;53.50
36372;DHT22;22398;51.346;12.372;2023-07-13T19:08:27;21.70;55.50
36372;DHT22;22398;51.346;12.372;2023-07-13T19:13:32;21.20;56.70
36372;DHT22;22398;51.346;12.372;2023-07-13T19:18:38;20.80;58.20
36372;DHT22;22398;51.346;12.372;2023-07-13T19:23:42;20.40;59.50
36372;DHT22;22398;51.346;12.372;2023-07-13T19:28:49;20.20;60.70
36372;DHT22;22398;51.346;12.372;2023-07-13T19:33:53;20.10;61.60
36372;DHT22;22398;51.346;12.372;2023-07-13T19:38:56;20.00;62.20
36372;DHT22;22398;51.346;12.372;2023-07-13T19:44:01;19.90;62.60
36372;DHT22;22398;51.346;12.372;2023-07-13T19:49:05;19.90;63.30
36372;DHT22;22398;51.346;12.372;2023-07-13T19:54:10;19.80;63.70
36372;DHT22;22398;51.346;12.372;2023-07-13T19:59:22;19.70;64.30
36372;DHT22;22398;51.346;12.372;2023-07-13T20:04:27;19.60;65.00
36372;DHT22;22398;51.346;12.372;2023-07-13T20:09:31;19.50;65.20
36372;DHT22;22398;51.346;12.372;2023-07-13T20:14:46;19.40;65.30
36372;DHT22;22398;51.346;12.372;2023-07-13T20:19:49;19.30;65.50
36372;DHT22;22398;51.346;12.372;2023-07-13T20:24:53;19.20;65.60
36372;DHT22;22398;51.346;12.372;2023-07-13T20:29:58;19.00;65.40
36372;DHT22;22398;51.346;12.372;2023-07-13T20:35:01;19.10;66.00
36372;DHT22;22398;51.346;12.372;2023-07-13T20:40:05;18.90;65.90
36372;DHT22;22398;51.346;12.372;2023-07-13T20:45:14;18.90;66.70
36372;DHT22;22398;51.346;12.372;2023-07-13T20:50:19;18.80;66.80
36372;DHT22;22398;51.346;12.372;2023-07-13T20:55:26;18.80;67.20
36372;DHT22;22398;51.346;12.372;2023-07-13T21:00:31;18.70;67.50
36372;DHT22;22398;51.346;12.372;2023-07-13T21:05:35;18.60;68.00
36372;DHT22;22398;51.346;12.372;2023-07-13T21:10:39;18.40;68.20
36372;DHT22;22398;51.346;12.372;2023-07-13T21:15:44;18.40;68.70
36372;DHT22;22398;51.346;12.372;2023-07-13T21:20:49;18.20;69.00
36372;DHT22;22398;51.346;12.372;2023-07-13T21:25:53;18.10;69.60
36372;DHT22;22398;51.346;12.372;2023-07-13T21:30:59;18.00;70.20
36372;DHT22;22398;51.346;12.372;2023-07-13T21:36:03;17.90;70.70
36372;DHT22;22398;51.346;12.372;2023-07-13T21:41:13;17.80;71.20
36372;DHT22;22398;51.346;12.372;2023-07-13T21:46:18;17.70;71.70
36372;DHT22;22398;51.346;12.372;2023-07-13T21:51:23;17.60;71.90
36372;DHT22;22398;51.346;12.372;2023-07-13T21:56:27;17.50;71.90
36372;DHT22;22398;51.346;12.372;2023-07-13T22:01:31;17.50;72.10
36372;DHT22;22398;51.346;12.372;2023-07-13T22:06:36;17.50;72.60
36372;DHT22;22398;51.346;12.372;2023-07-13T22:11:39;17.40;72.70
36372;DHT22;22398;51.346;12.372;2023-07-13T22:16:44;17.30;72.80
36372;DHT22;22398;51.346;12.372;2023-07-13T22:21:48;17.40;73.30
36372;DHT22;22398;51.346;12.372;2023-07-13T22:26:51;17.40;73.70
36372;DHT22;22398;51.346;12.372;2023-07-13T22:31:56;17.30;74.10
36372;DHT22;22398;51.346;12.372;2023-07-13T22:36:59;17.20;75.00
36372;DHT22;22398;51.346;12.372;2023-07-13T22:42:03;17.00;75.40
36372;DHT22;22398;51.346;12.372;2023-07-13T22:47:09;17.00;75.80
36372;DHT22;22398;51.346;12.372;2023-07-13T22:52:17;17.00;75.70
36372;DHT22;22398;51.346;12.372;2023-07-13T22:57:20;17.00;75.80
36372;DHT22;22398;51.346;12.372;2023-07-13T23:02:27;17.00;75.90
36372;DHT22;22398;51.346;12.372;2023-07-13T23:07:31;17.10;76.20
36372;DHT22;22398;51.346;12.372;2023-07-13T23:12:36;17.00;76.10
36372;DHT22;22398;51.346;12.372;2023-07-13T23:17:41;17.00;76.40
36372;DHT22;22398;51.346;12.372;2023-07-13T23:22:44;17.00;76.60
36372;DHT22;22398;51.346;12.372;2023-07-13T23:27:48;16.90;77.30
36372;DHT22;22398;51.346;12.372;2023-07-13T23:32:55;17.00;77.80
36372;DHT22;22398;51.346;12.372;2023-07-13T23:38:00;17.00;78.00
36372;DHT22;22398;51.346;12.372;2023-07-13T23:43:03;16.90;78.10
36372;DHT22;22398;51.346;12.372;2023-07-13T23:48:09;16.90;78.40
36372;DHT22;22398;51.346;12.372;2023-07-13T23:53:14;16.80;78.70
36372;DHT22;22398;51.346;12.372;2023-07-13T23:58:18;16.90;79.40
